sensor_id;sensor_type;location;lat;lon;timestamp;pressure;altitude;pressure_sealevel;temperature
76476;BMP280;65308;50.078;14.854;2023-06-10T00:01:19;98928.56;;;17.51
76476;BMP280;65308;50.078;14.854;2023-06-10T00:03:48;98921.94;;;17.46
76476;BMP280;65308;50.078;14.854;2023-06-10T00:06:14;98930.53;;;17.45
76476;BMP280;65308;50.078;14.854;2023-06-10T00:08:41;98927.81;;;17.45
76476;BMP280;65308;50.078;14.854;2023-06-10T00:11:07;98923.59;;;17.44
76476;BMP280;65308;50.078;14.854;2023-06-10T00:13:34;98927.81;;;17.39
76476;BMP280;65308;50.078;14.854;2023-06-10T00:16:00;98927.81;;;17.39
76476;BMP280;65308;50.078;14.854;2023-06-10T00:18:30;98930.28;;;17.37
76476;BMP280;65308;50.078;14.854;2023-06-10T00:20:57;98934.47;;;17.33
76476;BMP280;65308;50.078;14.854;2023-06-10T00:23:29;98926.59;;;17.29
76476;BMP280;65308;50.078;14.854;2023-06-10T00:25:57;98931.75;;;17.27
76476;BMP280;65308;50.078;14.854;2023-06-10T00:28:24;98932.50;;;17.22
76476;BMP280;65308;50.078;14.854;2023-06-10T00:30:51;98935.19;;;17.16
76476;BMP280;65308;50.078;14.854;2023-06-10T00:33:18;98933.50;;;17.13
76476;BMP280;65308;50.078;14.854;2023-06-10T00:35:46;98931.03;;;17.10
76476;BMP280;65308;50.078;14.854;2023-06-10T00:38:13;98934.72;;;17.07
76476;BMP280;65308;50.078;14.854;2023-06-10T00:40:40;98938.38;;;17.03
76476;BMP280;65308;50.078;14.854;2023-06-10T00:43:07;98937.38;;;17.01
76476;BMP280;65308;50.078;14.854;2023-06-10T00:45:34;98936.19;;;17.02
76476;BMP280;65308;50.078;14.854;2023-06-10T00:48:01;98932.75;;;17.01
76476;BMP280;65308;50.078;14.854;2023-06-10T00:50:28;98940.63;;;16.99
76476;BMP280;65308;50.078;14.854;2023-06-10T00:52:56;98933.47;;;17.02
76476;BMP280;65308;50.078;14.854;2023-06-10T00:55:23;98937.38;;;17.01
76476;BMP280;65308;50.078;14.854;2023-06-10T00:57:53;98931.78;;;16.99
76476;BMP280;65308;50.078;14.854;2023-06-10T01:00:19;98932.72;;;16.96
76476;BMP280;65308;50.078;14.854;2023-06-10T01:02:46;98942.09;;;16.95
76476;BMP280;65308;50.078;14.854;2023-06-10T01:05:13;98938.66;;;16.94
76476;BMP280;65308;50.078;14.854;2023-06-10T01:07:43;98937.63;;;16.92
76476;BMP280;65308;50.078;14.854;2023-06-10T01:10:19;98938.13;;;16.85
76476;BMP280;65308;50.078;14.854;2023-06-10T01:12:51;98942.06;;;16.78
76476;BMP280;65308;50.078;14.854;2023-06-10T01:15:19;98942.75;;;16.73
76476;BMP280;65308;50.078;14.854;2023-06-10T01:17:55;98952.31;;;16.63
76476;BMP280;65308;50.078;14.854;2023-06-10T01:20:23;98938.28;;;16.53
76476;BMP280;65308;50.078;14.854;2023-06-10T01:22:53;98948.09;;;16.45
76476;BMP280;65308;50.078;14.854;2023-06-10T01:25:21;98948.06;;;16.39
76476;BMP280;65308;50.078;14.854;2023-06-10T01:27:54;98943.38;;;16.29
76476;BMP280;65308;50.078;14.854;2023-06-10T01:30:27;98949.72;;;16.20
76476;BMP280;65308;50.078;14.854;2023-06-10T01:32:57;98947.97;;;16.17
76476;BMP280;65308;50.078;14.854;2023-06-10T01:35:26;98947.00;;;16.14
76476;BMP280;65308;50.078;14.854;2023-06-10T01:37:56;98950.16;;;16.13
76476;BMP280;65308;50.078;14.854;2023-06-10T01:40:25;98947.94;;;16.11
76476;BMP280;65308;50.078;14.854;2023-06-10T01:42:52;98952.34;;;16.09
76476;BMP280;65308;50.078;14.854;2023-06-10T01:45:18;98958.50;;;16.09
76476;BMP280;65308;50.078;14.854;2023-06-10T01:47:45;98954.59;;;16.10
76476;BMP280;65308;50.078;14.854;2023-06-10T01:50:12;98955.38;;;16.16
76476;BMP280;65308;50.078;14.854;2023-06-10T01:52:38;98960.75;;;16.16
76476;BMP280;65308;50.078;14.854;2023-06-10T01:55:07;98964.13;;;16.11
76476;BMP280;65308;50.078;14.854;2023-06-10T01:57:33;98963.41;;;16.11
76476;BMP280;65308;50.078;14.854;2023-06-10T02:00:00;98971.25;;;16.09
76476;BMP280;65308;50.078;14.854;2023-06-10T02:02:28;98971.72;;;16.07
76476;BMP280;65308;50.078;14.854;2023-06-10T02:04:55;98968.78;;;16.05
76476;BMP280;65308;50.078;14.854;2023-06-10T02:07:22;98983.03;;;16.06
76476;BMP280;65308;50.078;14.854;2023-06-10T02:09:48;98980.78;;;16.04
76476;BMP280;65308;50.078;14.854;2023-06-10T02:12:16;98983.50;;;16.04
76476;BMP280;65308;50.078;14.854;2023-06-10T02:14:43;98984.72;;;16.03
76476;BMP280;65308;50.078;14.854;2023-06-10T02:17:09;98983.75;;;16.00
76476;BMP280;65308;50.078;14.854;2023-06-10T02:19:38;98980.03;;;15.98
76476;BMP280;65308;50.078;14.854;2023-06-10T02:22:08;98980.25;;;15.94
76476;BMP280;65308;50.078;14.854;2023-06-10T02:24:35;98976.25;;;15.84
76476;BMP280;65308;50.078;14.854;2023-06-10T02:27:03;98974.78;;;15.83
76476;BMP280;65308;50.078;14.854;2023-06-10T02:29:33;98975.25;;;15.82
76476;BMP280;65308;50.078;14.854;2023-06-10T02:31:59;98975.25;;;15.82
76476;BMP280;65308;50.078;14.854;2023-06-10T02:34:26;98982.38;;;15.79
76476;BMP280;65308;50.078;14.854;2023-06-10T02:36:52;98976.97;;;15.79
76476;BMP280;65308;50.078;14.854;2023-06-10T02:39:19;98979.66;;;15.79
76476;BMP280;65308;50.078;14.854;2023-06-10T02:41:46;98978.16;;;15.78
76476;BMP280;65308;50.078;14.854;2023-06-10T02:44:12;98981.34;;;15.77
76476;BMP280;65308;50.078;14.854;2023-06-10T02:46:40;98985.78;;;15.74
76476;BMP280;65308;50.078;14.854;2023-06-10T02:49:07;98987.47;;;15.71
76476;BMP280;65308;50.078;14.854;2023-06-10T02:51:33;98976.88;;;15.68
76476;BMP280;65308;50.078;14.854;2023-06-10T02:54:00;98988.91;;;15.67
76476;BMP280;65308;50.078;14.854;2023-06-10T02:56:27;98982.53;;;15.64
76476;BMP280;65308;50.078;14.854;2023-06-10T02:58:54;98979.81;;;15.64
76476;BMP280;65308;50.078;14.854;2023-06-10T03:01:20;98982.97;;;15.63
76476;BMP280;65308;50.078;14.854;2023-06-10T03:03:49;98983.72;;;15.63
76476;BMP280;65308;50.078;14.854;2023-06-10T03:06:16;98977.59;;;15.63
76476;BMP280;65308;50.078;14.854;2023-06-10T03:08:43;98985.63;;;15.57
76476;BMP280;65308;50.078;14.854;2023-06-10T03:11:11;98990.06;;;15.60
76476;BMP280;65308;50.078;14.854;2023-06-10T03:13:38;98988.38;;;15.63
76476;BMP280;65308;50.078;14.854;2023-06-10T03:16:05;98988.91;;;15.67
76476;BMP280;65308;50.078;14.854;2023-06-10T03:18:32;98987.78;;;15.85
76476;BMP280;65308;50.078;14.854;2023-06-10T03:20:59;98994.66;;;15.86
76476;BMP280;65308;50.078;14.854;2023-06-10T03:23:26;98996.13;;;15.87
76476;BMP280;65308;50.078;14.854;2023-06-10T03:25:54;98998.22;;;16.03
76476;BMP280;65308;50.078;14.854;2023-06-10T03:28:21;99006.81;;;16.50
76476;BMP280;65308;50.078;14.854;2023-06-10T03:30:47;98999.31;;;16.93
76476;BMP280;65308;50.078;14.854;2023-06-10T03:33:14;99006.47;;;17.02
76476;BMP280;65308;50.078;14.854;2023-06-10T03:35:41;99007.47;;;17.10
76476;BMP280;65308;50.078;14.854;2023-06-10T03:38:09;99011.19;;;17.18
76476;BMP280;65308;50.078;14.854;2023-06-10T03:40:36;99017.06;;;17.22
76476;BMP280;65308;50.078;14.854;2023-06-10T03:43:02;99013.88;;;17.29
76476;BMP280;65308;50.078;14.854;2023-06-10T03:45:29;99001.84;;;17.36
76476;BMP280;65308;50.078;14.854;2023-06-10T03:47:55;99006.28;;;17.45
76476;BMP280;65308;50.078;14.854;2023-06-10T03:50:22;99004.81;;;17.49
76476;BMP280;65308;50.078;14.854;2023-06-10T03:52:50;99001.63;;;17.51
76476;BMP280;65308;50.078;14.854;2023-06-10T03:55:18;99010.47;;;17.51
76476;BMP280;65308;50.078;14.854;2023-06-10T03:57:47;99009.22;;;17.58
76476;BMP280;65308;50.078;14.854;2023-06-10T04:00:14;99009.97;;;17.64
76476;BMP280;65308;50.078;14.854;2023-06-10T04:02:41;99010.19;;;17.72
76476;BMP280;65308;50.078;14.854;2023-06-10T04:05:11;99017.34;;;17.81
76476;BMP280;65308;50.078;14.854;2023-06-10T04:07:38;99018.28;;;17.89
76476;BMP280;65308;50.078;14.854;2023-06-10T04:10:07;99018.78;;;17.98
76476;BMP280;65308;50.078;14.854;2023-06-10T04:12:35;99021.69;;;18.12
76476;BMP280;65308;50.078;14.854;2023-06-10T04:15:02;99019.22;;;18.25
76476;BMP280;65308;50.078;14.854;2023-06-10T04:17:29;99030.47;;;18.40
76476;BMP280;65308;50.078;14.854;2023-06-10T04:19:55;99039.06;;;19.32
76476;BMP280;65308;50.078;14.854;2023-06-10T04:22:23;99043.28;;;20.69
76476;BMP280;65308;50.078;14.854;2023-06-10T04:24:49;99043.44;;;22.20
76476;BMP280;65308;50.078;14.854;2023-06-10T04:27:16;99033.41;;;22.83
76476;BMP280;65308;50.078;14.854;2023-06-10T04:29:44;99030.84;;;22.99
76476;BMP280;65308;50.078;14.854;2023-06-10T04:32:11;99036.09;;;23.18
76476;BMP280;65308;50.078;14.854;2023-06-10T04:34:38;99034.16;;;23.33
76476;BMP280;65308;50.078;14.854;2023-06-10T04:37:05;99032.06;;;23.39
76476;BMP280;65308;50.078;14.854;2023-06-10T04:39:32;99024.28;;;23.51
76476;BMP280;65308;50.078;14.854;2023-06-10T04:41:59;99023.84;;;23.76
76476;BMP280;65308;50.078;14.854;2023-06-10T04:44:26;99025.88;;;23.75
76476;BMP280;65308;50.078;14.854;2023-06-10T04:46:55;99026.25;;;23.79
76476;BMP280;65308;50.078;14.854;2023-06-10T04:49:22;99031.75;;;23.87
76476;BMP280;65308;50.078;14.854;2023-06-10T04:51:48;99032.97;;;24.14
76476;BMP280;65308;50.078;14.854;2023-06-10T04:54:16;99029.44;;;24.73
76476;BMP280;65308;50.078;14.854;2023-06-10T04:56:43;99037.50;;;25.72
76476;BMP280;65308;50.078;14.854;2023-06-10T04:59:10;99045.97;;;26.39
76476;BMP280;65308;50.078;14.854;2023-06-10T05:01:38;99043.75;;;27.47
76476;BMP280;65308;50.078;14.854;2023-06-10T05:04:07;99045.59;;;27.45
76476;BMP280;65308;50.078;14.854;2023-06-10T05:06:35;99037.63;;;27.56
76476;BMP280;65308;50.078;14.854;2023-06-10T05:09:03;99043.22;;;27.58
76476;BMP280;65308;50.078;14.854;2023-06-10T05:11:30;99041.41;;;27.88
76476;BMP280;65308;50.078;14.854;2023-06-10T05:13:58;99046.56;;;27.84
76476;BMP280;65308;50.078;14.854;2023-06-10T05:16:25;99042.22;;;27.81
76476;BMP280;65308;50.078;14.854;2023-06-10T05:18:52;99051.53;;;27.85
76476;BMP280;65308;50.078;14.854;2023-06-10T05:21:20;99047.38;;;27.94
76476;BMP280;65308;50.078;14.854;2023-06-10T05:23:47;99047.66;;;28.15
76476;BMP280;65308;50.078;14.854;2023-06-10T05:26:13;99052.84;;;28.48
76476;BMP280;65308;50.078;14.854;2023-06-10T05:28:40;99059.75;;;29.73
76476;BMP280;65308;50.078;14.854;2023-06-10T05:31:07;99049.97;;;31.17
76476;BMP280;65308;50.078;14.854;2023-06-10T05:33:33;99068.72;;;32.57
76476;BMP280;65308;50.078;14.854;2023-06-10T05:36:00;99063.91;;;33.98
76476;BMP280;65308;50.078;14.854;2023-06-10T05:38:28;99059.91;;;34.58
76476;BMP280;65308;50.078;14.854;2023-06-10T05:40:57;99054.78;;;34.52
76476;BMP280;65308;50.078;14.854;2023-06-10T05:43:25;99052.97;;;33.75
76476;BMP280;65308;50.078;14.854;2023-06-10T05:45:52;99050.38;;;33.26
76476;BMP280;65308;50.078;14.854;2023-06-10T05:48:19;99056.00;;;32.89
76476;BMP280;65308;50.078;14.854;2023-06-10T05:50:46;99075.81;;;33.87
76476;BMP280;65308;50.078;14.854;2023-06-10T05:53:13;99065.41;;;33.60
76476;BMP280;65308;50.078;14.854;2023-06-10T05:55:42;99057.59;;;33.31
76476;BMP280;65308;50.078;14.854;2023-06-10T05:58:09;99055.66;;;33.08
76476;BMP280;65308;50.078;14.854;2023-06-10T06:00:37;99055.50;;;32.92
76476;BMP280;65308;50.078;14.854;2023-06-10T06:03:06;99051.19;;;32.89
76476;BMP280;65308;50.078;14.854;2023-06-10T06:05:32;99061.09;;;32.81
76476;BMP280;65308;50.078;14.854;2023-06-10T06:08:00;99058.22;;;32.67
76476;BMP280;65308;50.078;14.854;2023-06-10T06:10:27;99056.97;;;32.44
76476;BMP280;65308;50.078;14.854;2023-06-10T06:12:55;99051.34;;;32.19
76476;BMP280;65308;50.078;14.854;2023-06-10T06:15:22;99047.59;;;32.03
76476;BMP280;65308;50.078;14.854;2023-06-10T06:17:49;99049.53;;;32.12
76476;BMP280;65308;50.078;14.854;2023-06-10T06:20:18;99041.94;;;31.89
76476;BMP280;65308;50.078;14.854;2023-06-10T06:22:44;99050.66;;;31.39
76476;BMP280;65308;50.078;14.854;2023-06-10T06:25:11;99049.25;;;30.95
76476;BMP280;65308;50.078;14.854;2023-06-10T06:27:38;99054.78;;;30.21
76476;BMP280;65308;50.078;14.854;2023-06-10T06:30:07;99063.28;;;29.44
76476;BMP280;65308;50.078;14.854;2023-06-10T06:32:37;99062.97;;;28.92
76476;BMP280;65308;50.078;14.854;2023-06-10T06:35:07;99063.31;;;28.59
76476;BMP280;65308;50.078;14.854;2023-06-10T06:37:34;99068.16;;;28.05
76476;BMP280;65308;50.078;14.854;2023-06-10T06:40:01;99073.16;;;27.20
76476;BMP280;65308;50.078;14.854;2023-06-10T06:42:29;99079.03;;;25.46
76476;BMP280;65308;50.078;14.854;2023-06-10T06:44:56;99075.06;;;25.47
76476;BMP280;65308;50.078;14.854;2023-06-10T06:47:24;99076.91;;;25.14
76476;BMP280;65308;50.078;14.854;2023-06-10T06:49:51;99077.78;;;24.70
76476;BMP280;65308;50.078;14.854;2023-06-10T06:52:18;99082.91;;;24.15
76476;BMP280;65308;50.078;14.854;2023-06-10T06:54:47;99087.53;;;23.34
76476;BMP280;65308;50.078;14.854;2023-06-10T06:57:14;99086.28;;;22.46
76476;BMP280;65308;50.078;14.854;2023-06-10T06:59:41;99089.00;;;22.60
76476;BMP280;65308;50.078;14.854;2023-06-10T07:02:08;99093.53;;;22.44
76476;BMP280;65308;50.078;14.854;2023-06-10T07:04:36;99096.28;;;22.44
76476;BMP280;65308;50.078;14.854;2023-06-10T07:07:06;99093.41;;;22.63
76476;BMP280;65308;50.078;14.854;2023-06-10T07:09:33;99096.69;;;22.35
76476;BMP280;65308;50.078;14.854;2023-06-10T07:12:00;99102.25;;;22.16
76476;BMP280;65308;50.078;14.854;2023-06-10T07:14:28;99104.78;;;21.87
76476;BMP280;65308;50.078;14.854;2023-06-10T07:16:54;99098.75;;;21.49
76476;BMP280;65308;50.078;14.854;2023-06-10T07:19:21;99105.38;;;21.21
76476;BMP280;65308;50.078;14.854;2023-06-10T07:21:49;99099.38;;;21.42
76476;BMP280;65308;50.078;14.854;2023-06-10T07:24:16;99098.94;;;21.38
76476;BMP280;65308;50.078;14.854;2023-06-10T07:26:48;99106.97;;;21.30
76476;BMP280;65308;50.078;14.854;2023-06-10T07:29:14;99097.72;;;21.39
76476;BMP280;65308;50.078;14.854;2023-06-10T07:31:42;99102.75;;;21.48
76476;BMP280;65308;50.078;14.854;2023-06-10T07:34:08;99103.53;;;21.30
76476;BMP280;65308;50.078;14.854;2023-06-10T07:36:36;99103.53;;;21.30
76476;BMP280;65308;50.078;14.854;2023-06-10T07:39:04;99107.63;;;21.36
76476;BMP280;65308;50.078;14.854;2023-06-10T07:41:31;99110.81;;;21.54
76476;BMP280;65308;50.078;14.854;2023-06-10T07:43:58;99109.63;;;21.81
76476;BMP280;65308;50.078;14.854;2023-06-10T07:46:28;99117.16;;;22.01
76476;BMP280;65308;50.078;14.854;2023-06-10T07:48:55;99116.13;;;22.18
76476;BMP280;65308;50.078;14.854;2023-06-10T07:51:21;99118.22;;;21.98
76476;BMP280;65308;50.078;14.854;2023-06-10T07:53:56;99122.84;;;22.17
76476;BMP280;65308;50.078;14.854;2023-06-10T07:56:27;99122.59;;;22.01
76476;BMP280;65308;50.078;14.854;2023-06-10T07:58:54;99119.22;;;21.69
76476;BMP280;65308;50.078;14.854;2023-06-10T08:01:22;99112.03;;;21.39
76476;BMP280;65308;50.078;14.854;2023-06-10T08:03:49;99118.94;;;21.72
76476;BMP280;65308;50.078;14.854;2023-06-10T08:06:18;99118.50;;;21.95
76476;BMP280;65308;50.078;14.854;2023-06-10T08:08:45;99115.59;;;22.06
76476;BMP280;65308;50.078;14.854;2023-06-10T08:11:14;99136.16;;;22.07
76476;BMP280;65308;50.078;14.854;2023-06-10T08:13:42;99132.47;;;22.18
76476;BMP280;65308;50.078;14.854;2023-06-10T08:16:09;99130.38;;;22.24
76476;BMP280;65308;50.078;14.854;2023-06-10T08:18:36;99121.53;;;22.57
76476;BMP280;65308;50.078;14.854;2023-06-10T08:21:03;99129.47;;;23.03
76476;BMP280;65308;50.078;14.854;2023-06-10T08:23:29;99137.47;;;23.63
76476;BMP280;65308;50.078;14.854;2023-06-10T08:25:56;99147.09;;;24.65
76476;BMP280;65308;50.078;14.854;2023-06-10T08:28:23;99142.97;;;25.02
76476;BMP280;65308;50.078;14.854;2023-06-10T08:30:52;99142.75;;;25.77
76476;BMP280;65308;50.078;14.854;2023-06-10T08:33:18;99134.94;;;26.21
76476;BMP280;65308;50.078;14.854;2023-06-10T08:35:45;99147.09;;;26.51
76476;BMP280;65308;50.078;14.854;2023-06-10T08:38:13;99152.34;;;26.89
76476;BMP280;65308;50.078;14.854;2023-06-10T08:40:41;99151.88;;;27.25
76476;BMP280;65308;50.078;14.854;2023-06-10T08:43:17;99145.75;;;27.34
76476;BMP280;65308;50.078;14.854;2023-06-10T08:45:48;99146.78;;;27.39
76476;BMP280;65308;50.078;14.854;2023-06-10T08:48:17;99140.13;;;27.49
76476;BMP280;65308;50.078;14.854;2023-06-10T08:50:46;99151.34;;;27.61
76476;BMP280;65308;50.078;14.854;2023-06-10T08:53:17;99146.44;;;27.59
76476;BMP280;65308;50.078;14.854;2023-06-10T08:55:49;99134.94;;;27.53
76476;BMP280;65308;50.078;14.854;2023-06-10T08:58:17;99143.00;;;27.51
76476;BMP280;65308;50.078;14.854;2023-06-10T09:00:47;99134.63;;;27.49
76476;BMP280;65308;50.078;14.854;2023-06-10T09:03:19;99144.97;;;27.41
76476;BMP280;65308;50.078;14.854;2023-06-10T09:05:54;99143.16;;;27.36
76476;BMP280;65308;50.078;14.854;2023-06-10T09:08:22;99149.22;;;27.34
76476;BMP280;65308;50.078;14.854;2023-06-10T09:10:49;99150.16;;;27.29
76476;BMP280;65308;50.078;14.854;2023-06-10T09:13:23;99147.25;;;27.27
76476;BMP280;65308;50.078;14.854;2023-06-10T09:15:51;99153.66;;;27.30
76476;BMP280;65308;50.078;14.854;2023-06-10T09:18:27;99145.50;;;27.40
76476;BMP280;65308;50.078;14.854;2023-06-10T09:20:54;99147.69;;;27.58
76476;BMP280;65308;50.078;14.854;2023-06-10T09:23:21;99156.19;;;27.87
76476;BMP280;65308;50.078;14.854;2023-06-10T09:25:55;99161.16;;;28.33
76476;BMP280;65308;50.078;14.854;2023-06-10T09:28:22;99153.69;;;28.80
76476;BMP280;65308;50.078;14.854;2023-06-10T09:30:49;99153.06;;;29.28
76476;BMP280;65308;50.078;14.854;2023-06-10T09:33:16;99152.25;;;29.54
76476;BMP280;65308;50.078;14.854;2023-06-10T09:35:48;99155.84;;;29.76
76476;BMP280;65308;50.078;14.854;2023-06-10T09:38:19;99161.78;;;30.02
76476;BMP280;65308;50.078;14.854;2023-06-10T09:40:52;99160.13;;;30.37
76476;BMP280;65308;50.078;14.854;2023-06-10T09:43:41;99155.59;;;30.73
76476;BMP280;65308;50.078;14.854;2023-06-10T09:46:16;99162.00;;;30.97
76476;BMP280;65308;50.078;14.854;2023-06-10T09:48:47;99153.44;;;31.35
76476;BMP280;65308;50.078;14.854;2023-06-10T09:51:15;99158.97;;;31.68
76476;BMP280;65308;50.078;14.854;2023-06-10T09:53:48;99161.22;;;32.05
76476;BMP280;65308;50.078;14.854;2023-06-10T09:56:15;99155.47;;;32.48
76476;BMP280;65308;50.078;14.854;2023-06-10T09:58:41;99151.56;;;32.88
76476;BMP280;65308;50.078;14.854;2023-06-10T10:01:10;99148.53;;;33.32
76476;BMP280;65308;50.078;14.854;2023-06-10T10:03:46;99141.00;;;33.86
76476;BMP280;65308;50.078;14.854;2023-06-10T10:06:17;99145.06;;;34.24
76476;BMP280;65308;50.078;14.854;2023-06-10T10:08:45;99143.19;;;34.28
76476;BMP280;65308;50.078;14.854;2023-06-10T10:11:13;99143.09;;;34.26
76476;BMP280;65308;50.078;14.854;2023-06-10T10:13:41;99134.13;;;34.42
76476;BMP280;65308;50.078;14.854;2023-06-10T10:16:10;99131.88;;;34.24
76476;BMP280;65308;50.078;14.854;2023-06-10T10:18:39;99133.63;;;34.31
76476;BMP280;65308;50.078;14.854;2023-06-10T10:21:11;99131.22;;;33.85
76476;BMP280;65308;50.078;14.854;2023-06-10T10:23:44;99130.69;;;33.75
76476;BMP280;65308;50.078;14.854;2023-06-10T10:26:14;99129.75;;;33.19
76476;BMP280;65308;50.078;14.854;2023-06-10T10:28:41;99126.09;;;32.66
76476;BMP280;65308;50.078;14.854;2023-06-10T10:31:12;99118.75;;;32.00
76476;BMP280;65308;50.078;14.854;2023-06-10T10:33:51;99126.50;;;32.25
76476;BMP280;65308;50.078;14.854;2023-06-10T10:36:19;99120.56;;;31.51
76476;BMP280;65308;50.078;14.854;2023-06-10T10:38:48;99108.22;;;31.75
76476;BMP280;65308;50.078;14.854;2023-06-10T10:41:15;99112.25;;;31.18
76476;BMP280;65308;50.078;14.854;2023-06-10T10:43:43;99115.03;;;30.44
76476;BMP280;65308;50.078;14.854;2023-06-10T10:46:16;99109.69;;;30.27
76476;BMP280;65308;50.078;14.854;2023-06-10T10:48:52;99119.56;;;29.51
76476;BMP280;65308;50.078;14.854;2023-06-10T10:51:19;99124.22;;;29.38
76476;BMP280;65308;50.078;14.854;2023-06-10T10:54:11;99127.28;;;28.77
76476;BMP280;65308;50.078;14.854;2023-06-10T10:56:39;99122.00;;;28.25
76476;BMP280;65308;50.078;14.854;2023-06-10T10:59:07;99122.03;;;28.08
76476;BMP280;65308;50.078;14.854;2023-06-10T11:01:40;99118.75;;;27.92
76476;BMP280;65308;50.078;14.854;2023-06-10T11:04:07;99113.19;;;27.82
76476;BMP280;65308;50.078;14.854;2023-06-10T11:06:34;99110.81;;;27.79
76476;BMP280;65308;50.078;14.854;2023-06-10T11:09:31;99109.06;;;27.74
76476;BMP280;65308;50.078;14.854;2023-06-10T11:11:58;99106.38;;;27.66
76476;BMP280;65308;50.078;14.854;2023-06-10T11:14:28;99108.75;;;27.52
76476;BMP280;65308;50.078;14.854;2023-06-10T11:16:56;99107.28;;;27.34
76476;BMP280;65308;50.078;14.854;2023-06-10T11:19:33;99113.72;;;27.12
76476;BMP280;65308;50.078;14.854;2023-06-10T11:22:02;99108.34;;;26.96
76476;BMP280;65308;50.078;14.854;2023-06-10T11:24:31;99098.41;;;26.76
76476;BMP280;65308;50.078;14.854;2023-06-10T11:27:18;99094.47;;;26.62
76476;BMP280;65308;50.078;14.854;2023-06-10T11:29:58;99096.78;;;26.48
76476;BMP280;65308;50.078;14.854;2023-06-10T11:32:29;99099.13;;;26.52
76476;BMP280;65308;50.078;14.854;2023-06-10T11:34:57;99092.94;;;26.51
76476;BMP280;65308;50.078;14.854;2023-06-10T11:37:24;99096.72;;;26.56
76476;BMP280;65308;50.078;14.854;2023-06-10T11:39:53;99102.69;;;26.69
76476;BMP280;65308;50.078;14.854;2023-06-10T11:42:20;99097.44;;;26.89
76476;BMP280;65308;50.078;14.854;2023-06-10T11:44:48;99087.50;;;27.11
76476;BMP280;65308;50.078;14.854;2023-06-10T11:47:15;99081.03;;;27.41
76476;BMP280;65308;50.078;14.854;2023-06-10T11:49:42;99080.59;;;27.61
76476;BMP280;65308;50.078;14.854;2023-06-10T11:52:09;99075.69;;;27.87
76476;BMP280;65308;50.078;14.854;2023-06-10T11:54:36;99072.13;;;28.21
76476;BMP280;65308;50.078;14.854;2023-06-10T11:57:04;99066.75;;;28.50
76476;BMP280;65308;50.078;14.854;2023-06-10T11:59:33;99060.19;;;28.82
76476;BMP280;65308;50.078;14.854;2023-06-10T12:02:00;99067.03;;;29.20
76476;BMP280;65308;50.078;14.854;2023-06-10T12:04:27;99064.13;;;29.47
76476;BMP280;65308;50.078;14.854;2023-06-10T12:06:53;99059.03;;;29.14
76476;BMP280;65308;50.078;14.854;2023-06-10T12:09:21;99069.03;;;28.80
76476;BMP280;65308;50.078;14.854;2023-06-10T12:11:50;99055.16;;;28.98
76476;BMP280;65308;50.078;14.854;2023-06-10T12:14:53;99056.13;;;28.83
76476;BMP280;65308;50.078;14.854;2023-06-10T12:17:20;99055.38;;;28.63
76476;BMP280;65308;50.078;14.854;2023-06-10T12:19:48;99055.09;;;27.09
76476;BMP280;65308;50.078;14.854;2023-06-10T12:22:14;99046.34;;;26.61
76476;BMP280;65308;50.078;14.854;2023-06-10T12:24:45;99048.56;;;26.62
76476;BMP280;65308;50.078;14.854;2023-06-10T12:27:12;99051.34;;;26.80
76476;BMP280;65308;50.078;14.854;2023-06-10T12:29:40;99043.72;;;27.13
76476;BMP280;65308;50.078;14.854;2023-06-10T12:32:37;99043.31;;;27.16
76476;BMP280;65308;50.078;14.854;2023-06-10T12:35:07;99043.00;;;27.12
76476;BMP280;65308;50.078;14.854;2023-06-10T12:37:55;99034.06;;;27.29
76476;BMP280;65308;50.078;14.854;2023-06-10T12:43:39;99037.47;;;26.53
76476;BMP280;65308;50.078;14.854;2023-06-10T12:46:09;99024.47;;;26.53
76476;BMP280;65308;50.078;14.854;2023-06-10T12:48:49;99020.25;;;26.27
76476;BMP280;65308;50.078;14.854;2023-06-10T12:51:19;99025.63;;;26.42
76476;BMP280;65308;50.078;14.854;2023-06-10T12:53:46;99027.72;;;26.02
76476;BMP280;65308;50.078;14.854;2023-06-10T12:56:12;99020.84;;;25.85
76476;BMP280;65308;50.078;14.854;2023-06-10T12:58:39;99018.16;;;25.70
76476;BMP280;65308;50.078;14.854;2023-06-10T13:01:05;99018.41;;;25.49
76476;BMP280;65308;50.078;14.854;2023-06-10T13:03:32;99027.94;;;25.33
76476;BMP280;65308;50.078;14.854;2023-06-10T13:06:00;99035.44;;;25.17
76476;BMP280;65308;50.078;14.854;2023-06-10T13:08:27;99030.34;;;25.06
76476;BMP280;65308;50.078;14.854;2023-06-10T13:10:53;99028.88;;;25.13
76476;BMP280;65308;50.078;14.854;2023-06-10T13:13:21;99022.66;;;25.12
76476;BMP280;65308;50.078;14.854;2023-06-10T13:15:48;99000.94;;;25.22
76476;BMP280;65308;50.078;14.854;2023-06-10T13:18:15;99014.59;;;25.29
76476;BMP280;65308;50.078;14.854;2023-06-10T13:20:43;99005.66;;;25.29
76476;BMP280;65308;50.078;14.854;2023-06-10T13:23:11;99007.06;;;25.45
76476;BMP280;65308;50.078;14.854;2023-06-10T13:25:38;99003.44;;;25.43
76476;BMP280;65308;50.078;14.854;2023-06-10T13:28:05;99006.22;;;25.12
76476;BMP280;65308;50.078;14.854;2023-06-10T13:30:32;99019.75;;;25.25
76476;BMP280;65308;50.078;14.854;2023-06-10T13:32:59;99016.63;;;25.06
76476;BMP280;65308;50.078;14.854;2023-06-10T13:35:25;99011.19;;;24.91
76476;BMP280;65308;50.078;14.854;2023-06-10T13:37:52;99016.66;;;25.14
76476;BMP280;65308;50.078;14.854;2023-06-10T13:40:20;99035.28;;;25.00
76476;BMP280;65308;50.078;14.854;2023-06-10T13:42:52;99006.97;;;24.90
76476;BMP280;65308;50.078;14.854;2023-06-10T13:45:19;99016.63;;;25.06
76476;BMP280;65308;50.078;14.854;2023-06-10T13:47:46;99015.75;;;24.96
76476;BMP280;65308;50.078;14.854;2023-06-10T13:50:14;99015.22;;;25.05
76476;BMP280;65308;50.078;14.854;2023-06-10T13:52:41;99002.44;;;24.92
76476;BMP280;65308;50.078;14.854;2023-06-10T13:55:10;99002.06;;;25.11
76476;BMP280;65308;50.078;14.854;2023-06-10T13:57:45;99008.47;;;24.98
76476;BMP280;65308;50.078;14.854;2023-06-10T14:00:12;99026.72;;;25.11
76476;BMP280;65308;50.078;14.854;2023-06-10T14:02:41;99011.38;;;25.08
76476;BMP280;65308;50.078;14.854;2023-06-10T14:05:08;99014.25;;;25.25
76476;BMP280;65308;50.078;14.854;2023-06-10T14:07:35;99025.41;;;25.12